createdAt,value
2019-05-21T00:01:47.751Z,100.00
2019-05-21T00:04:27.816Z,100.00
2019-05-21T00:06:50.317Z,100.00
2019-05-21T00:09:20.761Z,100.00
2019-05-21T00:11:51.213Z,100.00
2019-05-21T00:14:21.699Z,100.00
2019-05-21T00:16:52.189Z,100.00
2019-05-21T00:19:22.716Z,100.00
2019-05-21T00:21:53.419Z,100.00
2019-05-21T00:24:23.869Z,100.00
2019-05-21T00:26:54.308Z,100.00
2019-05-21T00:30:18.726Z,100.00
2019-05-21T00:33:43.252Z,100.00
2019-05-21T00:37:09.697Z,100.00
2019-05-21T00:40:34.067Z,100.00
2019-05-21T00:43:04.542Z,100.00
2019-05-21T00:45:34.999Z,100.00
2019-05-21T00:48:05.925Z,100.00
2019-05-21T00:50:36.520Z,100.00
2019-05-21T00:53:06.991Z,100.00
2019-05-21T00:55:37.449Z,100.00
2019-05-21T00:58:07.853Z,100.00
2019-05-21T01:00:38.399Z,100.00
2019-05-21T01:03:08.734Z,99.81
2019-05-21T01:05:39.237Z,99.71
2019-05-21T01:08:09.721Z,99.78
2019-05-21T01:10:40.103Z,99.79
2019-05-21T01:13:10.583Z,99.65
2019-05-21T01:15:40.981Z,99.85
2019-05-21T01:18:11.439Z,99.44
2019-05-21T01:20:41.942Z,99.42
2019-05-21T01:23:12.362Z,99.83
2019-05-21T01:25:42.793Z,99.65
2019-05-21T01:28:13.222Z,99.86
2019-05-21T01:30:43.786Z,99.75
2019-05-21T01:33:14.397Z,99.90
2019-05-21T01:35:44.851Z,99.97
2019-05-21T01:38:15.312Z,99.91
2019-05-21T01:40:45.779Z,100.00
2019-05-21T01:43:16.237Z,99.50
2019-05-21T01:45:46.731Z,99.59
2019-05-21T01:48:17.212Z,99.89
2019-05-21T01:50:47.625Z,100.00
2019-05-21T01:53:18.106Z,99.46
2019-05-21T01:55:48.560Z,99.49
2019-05-21T01:58:19.148Z,99.65
2019-05-21T02:00:49.715Z,99.52
2019-05-21T02:03:20.241Z,99.79
2019-05-21T02:05:51.066Z,99.68
2019-05-21T02:08:21.487Z,99.67
2019-05-21T02:10:51.982Z,99.83
2019-05-21T02:13:22.383Z,99.99
2019-05-21T02:15:52.919Z,99.88
2019-05-21T02:18:23.431Z,99.93
2019-05-21T02:20:53.823Z,99.87
2019-05-21T02:23:24.240Z,99.70
2019-05-21T02:25:54.690Z,99.84
2019-05-21T02:28:25.181Z,99.79
2019-05-21T02:30:56.713Z,99.94
2019-05-21T02:33:27.535Z,100.00
2019-05-21T02:35:58.059Z,100.00
2019-05-21T02:38:28.532Z,100.00
2019-05-21T02:40:59.195Z,100.00
2019-05-21T02:43:30.159Z,100.00
2019-05-21T02:46:00.624Z,100.00
2019-05-21T02:48:31.074Z,99.68
2019-05-21T02:51:01.536Z,99.66
2019-05-21T02:53:34.619Z,99.69
2019-05-21T02:56:04.036Z,99.87
2019-05-21T02:58:34.534Z,99.98
2019-05-21T03:01:27.077Z,99.75
2019-05-21T03:03:57.618Z,99.81
2019-05-21T03:06:27.946Z,100.00
2019-05-21T03:08:58.545Z,100.00
2019-05-21T03:11:29.058Z,100.00
2019-05-21T03:13:59.431Z,100.00
2019-05-21T03:16:29.902Z,99.91
2019-05-21T03:19:00.455Z,99.81
2019-05-21T03:21:31.046Z,99.73
2019-05-21T03:24:01.534Z,99.43
2019-05-21T03:26:31.978Z,99.62
2019-05-21T03:29:02.443Z,99.64
2019-05-21T03:31:33.108Z,99.88
2019-05-21T03:34:03.575Z,99.89
2019-05-21T03:36:34.433Z,99.94
2019-05-21T03:39:06.076Z,99.90
2019-05-21T03:41:36.604Z,100.00
2019-05-21T03:44:07.001Z,100.00
2019-05-21T03:46:37.414Z,100.00
2019-05-21T03:49:07.833Z,99.96
2019-05-21T03:51:38.318Z,99.77
2019-05-21T03:54:08.706Z,99.72
2019-05-21T03:56:39.190Z,99.83
2019-05-21T03:59:09.575Z,100.00
2019-05-21T04:01:40.034Z,100.00
2019-05-21T04:04:10.494Z,100.00
2019-05-21T04:06:51.424Z,100.00
2019-05-21T04:09:13.154Z,100.00
2019-05-21T04:11:43.648Z,100.00
2019-05-21T04:14:30.130Z,99.78
2019-05-21T04:17:07.509Z,99.87
2019-05-21T04:19:39.400Z,99.85
2019-05-21T04:22:16.622Z,99.68
2019-05-21T04:24:47.184Z,99.77
2019-05-21T04:27:17.568Z,99.92
2019-05-21T04:29:48.067Z,99.79
2019-05-21T04:32:18.506Z,99.73
2019-05-21T04:34:48.987Z,99.90
2019-05-21T04:37:19.345Z,99.97
2019-05-21T04:39:49.740Z,99.99
2019-05-21T04:42:20.135Z,100.00
2019-05-21T04:44:50.588Z,100.00
2019-05-21T04:47:21.057Z,100.00
2019-05-21T04:49:51.560Z,99.65
2019-05-21T04:52:21.927Z,99.70
2019-05-21T04:54:52.266Z,99.77
2019-05-21T04:57:22.715Z,99.83
2019-05-21T04:59:53.090Z,99.96
2019-05-21T05:02:23.603Z,99.35
2019-05-21T05:04:54.106Z,99.67
2019-05-21T05:07:28.254Z,99.71
2019-05-21T05:09:56.785Z,99.93
2019-05-21T05:12:27.295Z,99.72
2019-05-21T05:14:57.797Z,99.93
2019-05-21T05:17:28.292Z,99.74
2019-05-21T05:19:58.844Z,99.56
2019-05-21T05:22:29.387Z,99.44
2019-05-21T05:24:59.895Z,99.41
2019-05-21T05:27:30.333Z,99.14
2019-05-21T05:30:00.749Z,98.87
2019-05-21T05:32:31.205Z,99.11
2019-05-21T05:35:01.948Z,99.14
2019-05-21T05:37:43.307Z,99.15
2019-05-21T05:40:05.006Z,98.90
2019-05-21T05:42:35.473Z,99.09
2019-05-21T05:45:06.585Z,98.88
2019-05-21T05:47:37.015Z,98.85
2019-05-21T05:50:09.748Z,98.68
2019-05-21T05:52:40.129Z,98.78
2019-05-21T05:55:10.723Z,98.50
2019-05-21T05:57:41.458Z,98.62
2019-05-21T06:00:14.035Z,98.87
2019-05-21T06:02:44.439Z,98.67
2019-05-21T06:05:16.403Z,98.53
2019-05-21T06:07:58.819Z,98.63
2019-05-21T06:10:20.389Z,98.32
2019-05-21T06:12:50.788Z,98.44
2019-05-21T06:15:22.514Z,97.97
2019-05-21T06:17:53.045Z,97.99
2019-05-21T06:20:23.555Z,98.04
2019-05-21T06:22:53.918Z,97.35
2019-05-21T06:25:24.553Z,98.17
2019-05-21T06:27:54.990Z,97.64
2019-05-21T06:30:25.491Z,97.67
2019-05-21T06:32:55.941Z,97.74
2019-05-21T06:35:26.478Z,98.09
2019-05-21T06:37:56.922Z,98.25
2019-05-21T06:40:27.310Z,97.87
2019-05-21T06:42:57.857Z,98.32
2019-05-21T06:45:28.265Z,97.79
2019-05-21T06:47:58.795Z,98.09
2019-05-21T06:50:29.263Z,97.80
2019-05-21T06:52:59.739Z,97.68
2019-05-21T06:55:30.207Z,97.68
2019-05-21T06:58:00.697Z,97.93
2019-05-21T07:00:31.263Z,97.57
2019-05-21T07:03:01.784Z,98.00
2019-05-21T07:05:32.159Z,98.07
2019-05-21T07:08:02.600Z,98.15
2019-05-21T07:10:33.040Z,98.50
2019-05-21T07:13:03.383Z,98.35
2019-05-21T07:15:33.832Z,97.46
2019-05-21T07:18:04.302Z,97.89
2019-05-21T07:20:34.729Z,97.76
2019-05-21T07:23:05.316Z,96.83
2019-05-21T07:25:36.027Z,96.56
2019-05-21T07:28:06.446Z,96.84
2019-05-21T07:30:37.019Z,96.85
2019-05-21T07:33:07.821Z,96.35
2019-05-21T07:35:38.247Z,95.70
2019-05-21T07:38:08.688Z,96.26
2019-05-21T07:40:39.291Z,95.79
2019-05-21T07:43:09.705Z,95.26
2019-05-21T07:45:40.173Z,95.95
2019-05-21T07:48:10.676Z,96.11
2019-05-21T07:50:41.221Z,96.07
2019-05-21T07:53:12.418Z,96.08
2019-05-21T07:55:42.826Z,96.60
2019-05-21T07:58:13.318Z,96.52
2019-05-21T08:00:43.730Z,96.07
2019-05-21T08:03:14.278Z,95.95
2019-05-21T08:05:44.749Z,96.00
2019-05-21T08:08:15.218Z,95.82
2019-05-21T08:10:45.672Z,95.35
2019-05-21T08:13:16.114Z,95.32
2019-05-21T08:15:46.552Z,95.42
2019-05-21T08:18:17.071Z,95.52
2019-05-21T08:20:47.499Z,95.64
2019-05-21T08:23:18.898Z,95.79
2019-05-21T08:25:49.366Z,95.53
2019-05-21T08:28:19.823Z,96.07
2019-05-21T08:30:50.291Z,95.94
2019-05-21T08:33:20.860Z,96.05
2019-05-21T08:35:51.354Z,96.35
2019-05-21T08:38:21.766Z,96.68
2019-05-21T08:40:52.310Z,96.39
2019-05-21T08:43:22.685Z,96.33
2019-05-21T08:45:53.088Z,95.41
2019-05-21T08:48:23.511Z,95.14
2019-05-21T08:50:53.990Z,94.63
2019-05-21T08:53:24.369Z,94.70
2019-05-21T08:55:54.799Z,94.90
2019-05-21T08:58:25.284Z,95.40
2019-05-21T09:00:55.617Z,94.39
2019-05-21T09:03:26.051Z,93.62
2019-05-21T09:05:56.601Z,94.14
2019-05-21T09:08:26.972Z,94.98
2019-05-21T09:10:57.328Z,94.36
2019-05-21T09:13:27.918Z,94.50
2019-05-21T09:15:58.406Z,93.84
2019-05-21T09:18:29.067Z,93.68
2019-05-21T09:20:59.498Z,94.28
2019-05-21T09:23:29.929Z,94.87
2019-05-21T09:26:00.348Z,94.11
2019-05-21T09:28:30.837Z,94.42
2019-05-21T09:31:02.062Z,94.10
2019-05-21T09:33:32.841Z,94.13
2019-05-21T09:36:03.266Z,94.81
2019-05-21T09:38:33.776Z,94.71
2019-05-21T09:41:04.248Z,94.58
2019-05-21T09:43:34.631Z,94.83
2019-05-21T09:46:05.199Z,94.95
2019-05-21T09:48:35.632Z,94.87
2019-05-21T09:51:06.077Z,94.50
2019-05-21T09:53:36.483Z,95.10
2019-05-21T09:56:24.436Z,95.01
2019-05-21T09:58:56.777Z,95.13
2019-05-21T10:01:33.858Z,95.63
2019-05-21T10:04:04.368Z,94.61
2019-05-21T10:06:34.815Z,94.33
2019-05-21T10:09:09.771Z,94.49
2019-05-21T10:11:40.221Z,94.16
2019-05-21T10:14:10.546Z,95.02
2019-05-21T10:16:40.944Z,94.93
2019-05-21T10:19:12.578Z,94.86
2019-05-21T10:21:42.910Z,93.77
2019-05-21T10:24:13.263Z,94.12
2019-05-21T10:26:43.651Z,94.12
2019-05-21T10:29:14.091Z,93.81
2019-05-21T10:31:44.402Z,94.14
2019-05-21T10:34:15.033Z,94.34
2019-05-21T10:36:45.417Z,93.96
2019-05-21T10:39:16.367Z,94.17
2019-05-21T10:41:46.879Z,94.16
2019-05-21T10:44:17.384Z,94.31
2019-05-21T10:46:47.801Z,94.97
2019-05-21T10:49:18.263Z,94.40
2019-05-21T10:51:48.728Z,93.78
2019-05-21T10:54:19.115Z,94.63
2019-05-21T10:56:49.628Z,94.93
2019-05-21T10:59:20.060Z,94.62
2019-05-21T11:02:15.847Z,93.52
2019-05-21T11:04:59.938Z,94.32
2019-05-21T11:07:30.467Z,94.09
2019-05-21T11:10:00.915Z,94.24
2019-05-21T11:12:31.407Z,94.03
2019-05-21T11:15:01.823Z,93.99
2019-05-21T11:17:48.035Z,94.95
2019-05-21T11:20:05.132Z,94.29
2019-05-21T11:22:35.562Z,93.95
2019-05-21T11:25:06.265Z,93.65
2019-05-21T11:27:36.744Z,94.23
2019-05-21T11:30:08.652Z,94.81
2019-05-21T11:32:39.334Z,93.80
2019-05-21T11:35:10.036Z,94.16
2019-05-21T11:37:40.413Z,93.59
2019-05-21T11:40:12.344Z,93.07
2019-05-21T11:42:42.825Z,93.87
2019-05-21T11:45:13.326Z,93.51
2019-05-21T11:47:43.907Z,94.07
2019-05-21T11:50:16.275Z,94.39
2019-05-21T11:52:46.747Z,92.67
2019-05-21T11:55:17.142Z,93.11
2019-05-21T11:57:47.551Z,92.15
2019-05-21T12:00:21.617Z,91.75
2019-05-21T12:02:52.257Z,92.07
2019-05-21T12:05:22.655Z,92.00
2019-05-21T12:07:53.084Z,91.64
2019-05-21T12:10:23.523Z,91.36
2019-05-21T12:12:54.007Z,91.31
2019-05-21T12:15:24.491Z,91.30
2019-05-21T12:17:54.999Z,91.65
2019-05-21T12:20:35.949Z,90.90
2019-05-21T12:22:57.732Z,91.22
2019-05-21T12:25:28.240Z,91.32
2019-05-21T12:27:58.682Z,90.59
2019-05-21T12:30:29.194Z,91.68
2019-05-21T12:32:59.531Z,91.05
2019-05-21T12:35:29.847Z,91.82
2019-05-21T12:38:00.367Z,92.34
2019-05-21T12:40:30.804Z,92.14
2019-05-21T12:43:01.133Z,91.87
2019-05-21T12:45:31.466Z,92.23
2019-05-21T12:48:01.920Z,92.21
2019-05-21T12:50:32.403Z,92.93
2019-05-21T12:53:02.960Z,93.22
2019-05-21T12:55:33.385Z,92.86
2019-05-21T12:58:03.898Z,92.80
2019-05-21T13:00:35.758Z,93.10
2019-05-21T13:03:06.171Z,93.09
2019-05-21T13:05:36.564Z,92.93
2019-05-21T13:08:07.025Z,93.24
2019-05-21T13:10:37.532Z,92.86
2019-05-21T13:13:08.443Z,92.23
2019-05-21T13:15:38.844Z,93.00
2019-05-21T13:18:09.342Z,93.47
2019-05-21T13:20:39.739Z,93.57
2019-05-21T13:23:10.216Z,93.25
2019-05-21T13:25:41.619Z,92.92
2019-05-21T13:28:12.076Z,92.08
2019-05-21T13:30:42.629Z,92.55
2019-05-21T13:33:13.006Z,93.15
2019-05-21T13:35:43.453Z,93.29
2019-05-21T13:38:26.529Z,93.57
2019-05-21T13:40:57.802Z,93.66
2019-05-21T13:43:28.247Z,92.90
2019-05-21T13:45:58.686Z,92.71
2019-05-21T13:48:29.153Z,93.16
2019-05-21T13:50:59.660Z,94.14
2019-05-21T13:53:30.104Z,94.17
2019-05-21T13:56:00.552Z,93.90
2019-05-21T13:58:30.997Z,93.97
2019-05-21T14:01:02.152Z,93.90
2019-05-21T14:03:32.856Z,94.57
2019-05-21T14:06:03.486Z,93.92
2019-05-21T14:08:33.938Z,93.74
2019-05-21T14:11:04.379Z,93.19
2019-05-21T14:13:34.902Z,93.81
2019-05-21T14:16:05.414Z,93.96
2019-05-21T14:18:36.660Z,93.89
2019-05-21T14:21:07.196Z,94.32
2019-05-21T14:23:37.771Z,94.53
2019-05-21T14:26:08.283Z,94.16
2019-05-21T14:28:38.687Z,94.15
2019-05-21T14:31:09.075Z,95.10
2019-05-21T14:33:39.401Z,95.02
2019-05-21T14:36:09.970Z,95.46
2019-05-21T14:38:40.422Z,94.95
2019-05-21T14:41:10.787Z,95.52
2019-05-21T14:43:41.579Z,94.63
2019-05-21T14:46:11.946Z,95.10
2019-05-21T14:48:42.266Z,94.83
2019-05-21T14:51:13.634Z,95.05
2019-05-21T14:53:44.261Z,96.05
2019-05-21T14:56:14.705Z,96.29
2019-05-21T14:58:45.264Z,96.19
2019-05-21T15:01:15.674Z,96.22
2019-05-21T15:03:46.197Z,95.77
2019-05-21T15:06:16.717Z,96.04
2019-05-21T15:08:47.113Z,96.20
2019-05-21T15:11:17.587Z,96.55
2019-05-21T15:13:48.047Z,96.60
2019-05-21T15:16:18.603Z,96.19
2019-05-21T15:18:49.104Z,96.43
2019-05-21T15:21:24.248Z,96.59
2019-05-21T15:23:54.949Z,96.39
2019-05-21T15:26:25.435Z,96.78
2019-05-21T15:28:55.956Z,96.79
2019-05-21T15:31:26.471Z,97.22
2019-05-21T15:33:56.914Z,97.41
2019-05-21T15:36:27.802Z,97.10
2019-05-21T15:38:58.339Z,96.89
2019-05-21T15:41:28.778Z,97.12
2019-05-21T15:43:59.180Z,97.41
2019-05-21T15:46:45.488Z,97.24
2019-05-21T15:49:01.839Z,97.39
2019-05-21T15:51:32.306Z,97.68
2019-05-21T15:54:02.776Z,97.86
2019-05-21T15:56:33.171Z,97.62
2019-05-21T15:59:03.608Z,97.79
2019-05-21T16:01:34.248Z,97.92
2019-05-21T16:04:04.711Z,98.24
2019-05-21T16:06:35.014Z,98.27
2019-05-21T16:09:07.375Z,98.51
2019-05-21T16:11:37.927Z,98.48
2019-05-21T16:14:08.251Z,98.35
2019-05-21T16:16:38.644Z,98.30
2019-05-21T16:19:09.026Z,98.09
2019-05-21T16:21:39.508Z,98.25
2019-05-21T16:24:09.999Z,98.25
2019-05-21T16:26:40.462Z,98.62
2019-05-21T16:29:12.106Z,98.64
2019-05-21T16:31:42.547Z,98.40
2019-05-21T16:34:12.996Z,98.52
2019-05-21T16:36:43.514Z,98.82
2019-05-21T16:39:14.958Z,98.73
2019-05-21T16:41:45.679Z,98.91
2019-05-21T16:44:16.175Z,98.92
2019-05-21T16:46:46.657Z,98.74
2019-05-21T16:49:16.987Z,98.56
2019-05-21T16:51:47.351Z,98.39
2019-05-21T16:54:17.772Z,98.36
2019-05-21T16:56:48.282Z,98.57
2019-05-21T16:59:18.678Z,98.06
2019-05-21T17:01:49.134Z,98.40
2019-05-21T17:04:19.884Z,98.53
2019-05-21T17:06:50.489Z,97.73
2019-05-21T17:09:20.844Z,98.23
2019-05-21T17:11:59.500Z,98.14
2019-05-21T17:14:24.280Z,98.06
2019-05-21T17:16:54.677Z,98.08
2019-05-21T17:19:25.248Z,98.32
2019-05-21T17:21:55.637Z,98.01
2019-05-21T17:24:26.296Z,98.00
2019-05-21T17:26:56.765Z,98.24
2019-05-21T17:29:27.284Z,98.08
2019-05-21T17:31:57.751Z,98.10
2019-05-21T17:34:28.089Z,97.84
2019-05-21T17:36:58.466Z,98.21
2019-05-21T17:39:28.945Z,98.26
2019-05-21T17:42:14.351Z,98.26
2019-05-21T17:44:31.518Z,98.23
2019-05-21T17:47:01.871Z,97.97
2019-05-21T17:49:32.755Z,97.99
2019-05-21T17:52:03.312Z,98.34
2019-05-21T17:54:33.829Z,98.32
2019-05-21T17:57:04.299Z,98.47
2019-05-21T17:59:34.815Z,98.61
2019-05-21T18:02:08.042Z,98.24
2019-05-21T18:04:38.634Z,97.97
2019-05-21T18:07:10.500Z,98.40
2019-05-21T18:09:41.199Z,98.29
2019-05-21T18:12:12.446Z,98.38
2019-05-21T18:14:43.746Z,98.54
2019-05-21T18:17:16.427Z,98.51
2019-05-21T18:19:49.311Z,98.45
2019-05-21T18:22:22.300Z,98.50
2019-05-21T18:24:53.310Z,97.98
2019-05-21T18:27:24.059Z,98.27
2019-05-21T18:29:54.692Z,98.36
2019-05-21T18:32:25.302Z,98.22
2019-05-21T18:34:55.782Z,98.29
2019-05-21T18:37:26.240Z,98.43
2019-05-21T18:39:56.683Z,98.67
2019-05-21T18:42:27.095Z,98.80
2019-05-21T18:44:57.657Z,98.70
2019-05-21T18:47:28.142Z,98.33
2019-05-21T18:49:58.605Z,98.44
2019-05-21T18:52:28.946Z,98.64
2019-05-21T18:54:59.438Z,98.61
2019-05-21T18:57:29.962Z,98.75
2019-05-21T19:00:00.436Z,98.66
2019-05-21T19:02:30.946Z,98.74
2019-05-21T19:05:01.304Z,98.67
2019-05-21T19:07:31.768Z,98.80
2019-05-21T19:10:02.210Z,98.92
2019-05-21T19:12:37.885Z,99.20
2019-05-21T19:15:05.059Z,98.81
2019-05-21T19:17:36.091Z,99.03
2019-05-21T19:20:07.878Z,99.09
2019-05-21T19:22:38.549Z,99.05
2019-05-21T19:25:09.221Z,98.98
2019-05-21T19:27:39.950Z,99.15
2019-05-21T19:30:11.128Z,99.00
2019-05-21T19:32:41.699Z,98.96
2019-05-21T19:35:12.319Z,98.95
2019-05-21T19:37:42.831Z,99.03
2019-05-21T19:40:13.847Z,98.91
2019-05-21T19:42:54.286Z,98.99
2019-05-21T19:45:17.591Z,98.69
2019-05-21T19:47:48.068Z,98.93
2019-05-21T19:50:18.909Z,99.05
2019-05-21T19:52:49.312Z,98.97
2019-05-21T19:55:20.135Z,99.01
2019-05-21T19:57:50.564Z,99.00
2019-05-21T20:00:24.189Z,99.13
2019-05-21T20:02:54.708Z,99.42
2019-05-21T20:05:25.393Z,99.58
2019-05-21T20:07:55.784Z,99.88
2019-05-21T20:10:26.634Z,99.61
2019-05-21T20:12:56.936Z,99.65
2019-05-21T20:15:27.677Z,99.83
2019-05-21T20:18:07.021Z,99.88
2019-05-21T20:20:31.044Z,99.98
2019-05-21T20:23:02.897Z,99.84
2019-05-21T20:25:34.832Z,99.68
2019-05-21T20:28:10.667Z,99.71
2019-05-21T20:30:40.032Z,99.75
2019-05-21T20:33:11.968Z,99.76
2019-05-21T20:35:43.019Z,99.72
2019-05-21T20:38:14.120Z,99.74
2019-05-21T20:40:44.562Z,99.95
2019-05-21T20:43:15.017Z,99.92
2019-05-21T20:45:47.281Z,99.72
2019-05-21T20:48:19.379Z,99.85
2019-05-21T20:50:50.178Z,99.84
2019-05-21T20:53:20.843Z,100.00
2019-05-21T20:55:51.843Z,100.00
2019-05-21T20:58:22.207Z,100.00
2019-05-21T21:00:56.912Z,99.94
2019-05-21T21:03:27.476Z,99.83
2019-05-21T21:05:58.172Z,99.84
2019-05-21T21:08:30.508Z,99.83
2019-05-21T21:11:01.068Z,99.88
2019-05-21T21:13:31.815Z,99.68
2019-05-21T21:16:02.619Z,99.97
2019-05-21T21:18:34.434Z,99.85
2019-05-21T21:21:04.960Z,99.64
2019-05-21T21:23:36.526Z,99.50
2019-05-21T21:26:08.169Z,99.59
2019-05-21T21:28:38.738Z,99.70
2019-05-21T21:31:09.229Z,99.17
2019-05-21T21:33:39.789Z,99.26
2019-05-21T21:36:10.277Z,99.33
2019-05-21T21:38:40.614Z,99.37
2019-05-21T21:41:11.206Z,99.40
2019-05-21T21:43:41.917Z,99.48
2019-05-21T21:46:12.573Z,99.36
2019-05-21T21:48:45.543Z,99.38
2019-05-21T21:51:17.610Z,99.34
2019-05-21T21:53:48.900Z,99.53
2019-05-21T21:56:19.965Z,99.51
2019-05-21T21:58:50.381Z,99.58
2019-05-21T22:01:49.280Z,99.71
2019-05-21T22:04:26.812Z,99.89
2019-05-21T22:06:57.838Z,99.89
2019-05-21T22:09:31.370Z,99.87
2019-05-21T22:12:03.616Z,99.81
2019-05-21T22:14:49.711Z,99.40
2019-05-21T22:17:09.725Z,99.57
2019-05-21T22:19:41.114Z,99.67
2019-05-21T22:22:12.610Z,99.73
2019-05-21T22:24:43.613Z,99.60
2019-05-21T22:27:14.439Z,99.56
2019-05-21T22:29:44.908Z,99.80
2019-05-21T22:32:16.722Z,99.79
2019-05-21T22:34:47.338Z,99.60
2019-05-21T22:37:22.322Z,99.75
2019-05-21T22:39:53.525Z,99.40
2019-05-21T22:42:24.462Z,99.68
2019-05-21T22:45:07.327Z,99.59
2019-05-21T22:47:28.345Z,99.70
2019-05-21T22:49:58.902Z,99.73
2019-05-21T22:52:29.420Z,99.85
2019-05-21T22:54:59.895Z,99.47
2019-05-21T22:57:30.194Z,99.63
2019-05-21T23:00:00.686Z,99.81
2019-05-21T23:02:33.673Z,99.68
2019-05-21T23:05:04.275Z,99.59
2019-05-21T23:07:34.855Z,99.69
2019-05-21T23:10:05.958Z,99.88
2019-05-21T23:12:37.034Z,99.87
2019-05-21T23:15:22.211Z,100.00
2019-05-21T23:17:40.373Z,100.00
2019-05-21T23:20:13.417Z,99.84
2019-05-21T23:22:45.159Z,99.99
2019-05-21T23:25:17.147Z,100.00
2019-05-21T23:27:48.772Z,100.00
2019-05-21T23:30:19.595Z,100.00
2019-05-21T23:32:50.827Z,100.00
2019-05-21T23:35:22.133Z,100.00
2019-05-21T23:37:53.583Z,100.00
2019-05-21T23:40:25.906Z,100.00
2019-05-21T23:42:56.553Z,100.00
2019-05-21T23:45:27.080Z,100.00
2019-05-21T23:47:57.629Z,100.00
2019-05-21T23:50:29.098Z,100.00
2019-05-21T23:53:00.455Z,100.00
2019-05-21T23:55:31.041Z,100.00
2019-05-21T23:58:01.594Z,100.00
